Morges, Ohio
Current Conditions -  °F | °C
As of 3:53 PM on Friday 24 Oct 2014 (Local Time) from KPHD Reporting Station
Clear Clear  
Wind Chill: 63°   Ceiling: Unl
Heat Index: 63°   Visibility: 10mi
Dew Point: 41°   Wind: 5mph
Humidity: 45%   Direction: 270°W
Pressure: 30.03"   Gusts: NA
Location:  40.65°N, 81.2986°W
Report Text: KPHD 241953Z AUTO 27004KT 10SM CLR 17/05 A3003 RMK AO2 SLP171 T01720050
Loading
Personal Weather Stations






























Interactive Weather Map
Tropical Storm Tracking
New forecast layout! Learn more

10-Day Weather Forecast

Advertisements
Track Severe Weather on mobile